Latest Weather Observations for Frankston

IDV60901

Issued at 11:45 pm EST Friday 1 August 2014 (issued every 10 minutes, with the page automatically refreshed every 10 minutes)

About weather observations | Map of Melbourne area stations | Latest observations for Melbourne area | Other Formats
Station Details ID: 086371 Name: FRANKSTON AWS Lat: -38.15 Lon: 145.12 Height: 6.0 m
Data from the previous 72 hours. | See also: Recent months at Frankston
Date/Time
EST
Tmp

°C
App
Tmp
°C
Dew
Point
°C
Rel
Hum
%
Delta-T

°C
Wind Press
QNH
hPa
Press
MSL
hPa
Rain
since
9 am
mm
Dir
 
Spd
km/h
Gust
km/h
Spd
kts
Gust
kts
01/11:30pm 8.1 4.4 2.6 68 2.3 SSW 11 13 6 7 - - -
01/11:00pm 8.6 4.8 3.8 72 2.1 SW 13 20 7 11 - - -
01/10:30pm 8.4 2.3 4.6 77 1.7 WNW 26 32 14 17 - - -
01/10:00pm 8.3 1.1 4.9 79 1.5 WNW 32 37 17 20 - - -
01/09:30pm 7.7 1.9 4.5 80 1.4 WNW 24 32 13 17 - - -
01/09:00pm 7.7 1.1 4.1 78 1.6 WNW 28 33 15 18 - - -
01/08:30pm 7.1 5.7 3.7 79 1.4 CALM 0 4 0 2 - - -
01/08:00pm 7.0 4.4 4.0 81 1.3 SW 7 15 4 8 - - -
01/07:30pm 6.4 3.8 3.4 81 1.3 S 6 9 3 5 - - -
01/07:00pm 6.6 2.8 4.1 84 1.1 S 13 20 7 11 - - -
01/06:54pm 6.3 -1.4 3.6 83 1.1 S 33 52 18 28 - - -
01/06:53pm 6.0 -2.5 3.2 82 1.2 S 37 52 20 28 - - -
01/06:30pm 7.0 2.7 3.4 78 1.5 SSW 15 32 8 17 - - -
01/06:00pm 7.6 3.7 3.3 74 1.8 SW 13 17 7 9 - - -
01/05:30pm 7.6 1.9 3.1 73 1.9 SW 22 33 12 18 - - -
01/05:00pm 7.9 0.1 3.0 71 2.1 SW 33 44 18 24 - - -
01/04:34pm 8.7 2.1 4.3 74 1.9 WSW 28 52 15 28 - - -
01/04:30pm 7.9 0.4 3.2 72 2.0 WSW 32 44 17 24 - - -
01/04:12pm 8.9 0.0 2.9 66 2.6 WSW 39 59 21 32 - - -
01/04:00pm 8.8 -1.2 4.4 74 1.9 WSW 46 63 25 34 - - -
01/03:45pm 9.9 -0.3 3.2 63 2.9 WSW 46 70 25 38 - - -
01/03:44pm 10.0 -0.1 3.5 64 2.8 WSW 46 57 25 31 - - -
01/03:30pm 9.0 1.5 4.4 73 2.0 W 33 41 18 22 - - -
01/03:00pm 8.5 0.2 4.3 75 1.8 WNW 37 44 20 24 - - -
01/02:30pm 7.8 0.9 4.4 79 1.5 WNW 30 39 16 21 - - -
01/02:00pm 7.5 2.6 3.9 78 1.5 WNW 19 24 10 13 - - -
01/01:30pm 7.6 -0.5 3.3 74 1.8 W 35 44 19 24 - - -
01/01:00pm 7.7 -1.7 4.3 79 1.5 WNW 43 57 23 31 - - -
01/12:30pm 7.4 -2.3 3.8 78 1.5 WNW 44 56 24 30 - - -
01/12:00pm 6.8 -3.4 3.2 78 1.5 WNW 46 57 25 31 - - -
01/11:30am 8.2 -1.9 3.9 74 1.9 WNW 46 61 25 33 - - -
01/11:21am 8.0 -2.9 3.3 72 2.0 W 50 61 27 33 - - -
01/11:00am 8.6 -0.7 3.2 69 2.3 NW 41 50 22 27 - - -
01/10:30am 8.8 -0.2 2.4 64 2.7 NNW 39 48 21 26 - - -
01/10:00am 8.5 -0.1 2.7 67 2.4 NW 37 46 20 25 - - -
01/09:30am 8.4 0.1 2.4 66 2.5 NNW 35 48 19 26 - - -
01/09:00am 7.8 -0.1 2.5 69 2.2 NNW 33 41 18 22 - - -
01/08:30am 7.6 -0.6 2.5 70 2.1 N 35 43 19 23 - - -
01/08:00am 7.4 -0.3 2.3 70 2.1 N 32 41 17 22 - - -
01/07:30am 7.9 1.4 2.6 69 2.2 N 26 35 14 19 - - -
01/07:00am 7.2 1.4 2.3 71 2.0 N 22 30 12 16 - - -
01/06:30am 7.1 0.9 2.0 70 2.1 N 24 33 13 18 - - -
01/06:00am 8.1 0.7 1.9 65 2.6 N 30 41 16 22 - - -
01/05:30am 8.5 0.6 2.3 65 2.6 NNW 33 43 18 23 - - -
01/05:00am 8.5 2.0 2.5 66 2.5 NNW 26 35 14 19 - - -
01/04:30am 8.4 0.5 2.4 66 2.5 NW 33 43 18 23 - - -
01/04:00am 8.4 0.1 2.2 65 2.6 NNW 35 46 19 25 - - -
01/03:30am 8.6 0.9 2.4 65 2.6 NNW 32 43 17 23 - - -
01/03:24am 8.7 1.0 2.5 65 2.6 NNW 32 50 17 27 - - -
01/03:00am 8.6 0.8 2.6 66 2.5 NW 33 43 18 23 - - -
01/02:30am 8.6 0.8 2.8 67 2.5 NNW 33 41 18 22 - - -
01/02:00am 8.4 0.2 2.6 67 2.4 NW 35 43 19 23 - - -
01/01:30am 8.6 1.4 3.2 69 2.3 NW 30 39 16 21 - - -
01/01:00am 8.7 1.1 2.7 66 2.5 NW 32 43 17 23 - - -
01/12:30am 9.0 1.2 3.0 66 2.6 WNW 33 43 18 23 - - -
01/12:00am 9.2 0.3 3.0 65 2.6 WNW 39 52 21 28 - - -
 
Date/Time
EST
Tmp

°C
App
Tmp
°C
Dew
Point
°C
Rel
Hum
%
Delta-T

°C
Wind Press
QNH
hPa
Press
MSL
hPa
Rain
since
9 am
mm
Dir
 
Spd
km/h
Gust
km/h
Spd
kts
Gust
kts
31/11:30pm 9.2 0.3 3.2 66 2.6 NW 39 48 21 26 - - -
31/11:00pm 9.1 0.7 3.5 68 2.4 NW 37 46 20 25 - - -
31/10:30pm 9.2 0.1 3.8 69 2.4 NW 41 48 22 26 - - -
31/10:00pm 9.8 0.9 3.1 63 2.9 WNW 39 50 21 27 - - -
31/09:30pm 9.7 0.4 3.2 64 2.8 NW 41 52 22 28 - - -
31/09:00pm 9.6 -0.1 3.8 67 2.5 WNW 44 54 24 29 - - -
31/08:30pm 9.6 1.3 4.2 69 2.4 NW 37 50 20 27 - - -
31/08:00pm 9.2 1.4 5.0 75 1.9 NNW 35 43 19 23 - - -
31/07:30pm 8.9 1.1 4.9 76 1.8 NNW 35 44 19 24 - - -
31/07:00pm 8.7 1.3 5.1 78 1.6 NNW 33 41 18 22 - - -
31/06:30pm 8.4 0.2 5.0 79 1.5 NW 37 44 20 24 - - -
31/06:00pm 8.3 -0.2 5.1 80 1.4 WNW 39 46 21 25 - - -
31/05:30pm 8.3 -1.1 5.2 81 1.4 WNW 44 57 24 31 - - -
31/05:00pm 8.1 -2.5 5.0 81 1.4 W 50 63 27 34 - - -
31/04:30pm 8.5 -2.1 5.3 80 1.4 W 50 65 27 35 - - -
31/04:00pm 9.0 -1.7 6.6 85 1.1 W 52 65 28 35 - - -
31/03:30pm 9.1 -1.3 6.2 82 1.3 W 50 67 27 36 - - -
31/03:00pm 10.3 0.2 7.4 82 1.4 W 50 63 27 34 - - -
31/02:30pm 11.5 2.4 6.8 73 2.2 W 44 52 24 28 - - -
31/02:27pm 14.1 4.5 6.2 59 3.8 W 46 52 25 28 - - -
31/02:05pm 16.1 7.5 6.5 53 4.7 NNW 41 59 22 32 - - -
31/02:00pm 15.7 7.1 6.7 55 4.4 NNW 41 50 22 27 - - -
31/01:30pm 15.2 6.7 7.0 58 4.0 NNW 41 52 22 28 - - -
31/01:00pm 15.7 5.4 6.4 54 4.5 N 50 65 27 35 - - -
31/12:36pm 15.8 5.1 6.5 54 4.5 N 52 72 28 39 - - -
31/12:30pm 15.8 4.6 6.0 52 4.7 N 54 70 29 38 - - -
31/12:12pm 15.7 5.0 6.4 54 4.5 N 52 74 28 40 - - -
31/12:00pm 15.5 4.4 6.5 55 4.4 N 54 69 29 37 - - -
31/11:30am 15.4 5.8 6.4 55 4.4 NNW 46 65 25 35 - - -
31/11:19am 15.4 5.9 6.7 56 4.2 NNW 46 67 25 36 - - -
31/11:00am 15.0 6.0 7.3 60 3.8 N 44 57 24 31 - - -
31/10:30am 14.5 5.2 7.5 63 3.5 N 46 65 25 35 - - -
31/10:28am 14.9 5.5 7.2 60 3.8 N 46 65 25 35 - - -
31/10:00am 14.6 5.8 7.9 64 3.3 N 44 59 24 32 - - -
31/09:30am 14.5 6.3 8.2 66 3.2 N 41 56 22 30 - - -
31/09:00am 14.2 7.2 8.4 68 2.9 N 35 50 19 27 - - -
31/08:33am 14.3 7.3 8.5 68 2.9 N 35 56 19 30 - - -
31/08:30am 13.9 7.2 8.1 68 2.9 N 33 44 18 24 - - -
31/08:00am 14.0 7.5 8.2 68 2.9 N 32 41 17 22 - - -
31/07:30am 14.4 7.0 8.4 67 3.0 N 37 44 20 24 - - -
31/07:00am 14.0 6.6 8.2 68 2.9 N 37 50 20 27 - - -
31/06:30am 13.9 6.9 8.5 70 2.7 N 35 44 19 24 - - -
31/06:00am 13.7 6.7 8.3 70 2.7 N 35 41 19 22 - - -
31/05:30am 13.7 6.6 8.1 69 2.8 N 35 41 19 22 - - -
31/05:00am 13.6 6.9 8.0 69 2.8 N 33 41 18 22 - - -
31/04:30am 14.0 7.3 7.5 65 3.2 N 32 39 17 21 - - -
31/04:00am 14.0 7.3 8.2 68 2.9 N 33 41 18 22 - - -
31/03:30am 13.9 8.3 8.7 71 2.6 N 28 35 15 19 - - -
31/03:00am 14.4 8.7 8.4 67 3.0 N 28 35 15 19 - - -
31/02:30am 14.3 8.9 8.0 66 3.1 N 26 39 14 21 - - -
31/02:00am 14.4 8.1 9.0 70 2.7 N 32 37 17 20 - - -
31/01:30am 14.1 7.6 8.9 71 2.6 N 33 41 18 22 - - -
31/01:00am 14.4 7.1 8.8 69 2.8 N 37 46 20 25 - - -
31/12:30am 14.0 8.2 9.4 74 2.4 N 30 35 16 19 - - -
31/12:00am 14.5 8.7 9.3 71 2.7 N 30 37 16 20 - - -
 
Date/Time
EST
Tmp

°C
App
Tmp
°C
Dew
Point
°C
Rel
Hum
%
Delta-T

°C
Wind Press
QNH
hPa
Press
MSL
hPa
Rain
since
9 am
mm
Dir
 
Spd
km/h
Gust
km/h
Spd
kts
Gust
kts
30/11:30pm 14.6 8.1 8.8 68 2.9 N 33 46 18 25 - - -
30/11:00pm 14.7 7.7 8.4 66 3.2 N 35 44 19 24 - - -
30/10:30pm 14.5 8.8 8.5 67 3.0 N 28 33 15 18 - - -
30/10:00pm 14.8 9.2 8.7 67 3.1 N 28 33 15 18 - - -
30/09:30pm 14.9 8.9 8.6 66 3.2 N 30 41 16 22 - - -
30/09:00pm 14.5 8.9 8.7 68 2.9 NNW 28 35 15 19 - - -
30/08:30pm 14.5 8.6 8.9 69 2.8 NNW 30 37 16 20 - - -
30/08:00pm 15.0 8.4 8.7 66 3.2 N 33 41 18 22 - - -
30/07:30pm 15.0 9.2 9.6 70 2.8 N 30 37 16 20 - - -
30/07:00pm 15.1 8.9 9.2 68 3.0 N 32 39 17 21 - - -
30/06:30pm 15.0 10.0 9.4 69 2.9 N 26 33 14 18 - - -
30/06:00pm 15.0 9.2 9.6 70 2.8 N 30 35 16 19 - - -
30/05:30pm 14.8 10.2 9.8 72 2.6 N 24 30 13 16 - - -
30/05:00pm 14.8 9.8 9.4 70 2.8 N 26 35 14 19 - - -
30/04:30pm 14.4 9.4 9.6 73 2.5 NNW 26 33 14 18 - - -
30/04:00pm 14.8 8.3 10.4 75 2.3 NW 35 43 19 23 - - -
30/03:30pm 14.8 9.9 10.0 73 2.5 NNW 26 33 14 18 - - -
30/03:00pm 14.7 9.8 9.9 73 2.5 NNW 26 35 14 19 - - -
30/02:30pm 13.9 10.3 10.5 80 1.8 NNW 20 24 11 13 - - -
30/02:00pm 14.1 10.0 10.1 77 2.1 NNW 22 26 12 14 - - -
30/01:30pm 14.2 9.7 10.0 76 2.2 NNW 24 32 13 17 - - -
30/01:00pm 14.1 9.9 9.7 75 2.3 NW 22 28 12 15 - - -
30/12:30pm 14.2 9.5 9.2 72 2.5 NW 24 30 13 16 - - -
30/12:00pm 13.6 9.7 9.6 77 2.0 NNW 20 24 11 13 - - -
30/11:30am 13.8 8.9 10.0 78 2.0 N 26 30 14 16 - - -
30/11:00am 13.8 8.5 9.8 77 2.1 N 28 33 15 18 - - -
30/10:30am 13.9 8.2 9.7 76 2.2 N 30 41 16 22 - - -
30/10:00am 13.5 8.8 9.2 75 2.2 NNW 24 28 13 15 - - -
30/09:30am 13.5 7.6 9.2 75 2.2 N 30 39 16 21 - - -
30/09:00am 12.6 8.9 10.0 84 1.3 N 20 26 11 14 - - -
30/08:30am 12.4 8.7 10.0 85 1.2 N 20 24 11 13 - - -
30/08:00am 12.4 9.8 9.4 82 1.5 N 13 17 7 9 - - -
30/07:30am 12.9 9.1 9.0 77 2.0 NNW 19 32 10 17 - - -
30/07:00am 12.7 9.3 9.2 79 1.8 N 17 20 9 11 - - -
30/06:30am 12.9 9.1 9.2 78 1.9 NNW 19 28 10 15 - - -
30/06:00am 12.1 8.5 9.8 86 1.2 NW 19 24 10 13 - - -
30/05:30am 11.9 7.3 9.8 87 1.1 NW 24 30 13 16 - - -
30/05:00am 12.3 7.0 9.9 85 1.2 WNW 28 35 15 19 - - -
30/04:30am 12.1 5.9 10.2 88 1.0 NW 33 43 18 23 - - -
30/04:11am 13.2 6.0 10.6 84 1.4 NW 39 50 21 27 - - -
30/04:00am 12.4 9.4 10.5 88 1.0 NW 17 19 9 10 - - -
30/03:30am 12.5 7.7 10.2 86 1.2 WNW 26 32 14 17 - - -
30/03:00am 13.4 8.1 9.8 79 1.8 NW 28 35 15 19 - - -
30/02:30am 12.3 9.4 10.9 91 0.7 WNW 17 20 9 11 - - -
30/02:00am 12.4 7.7 10.6 89 0.9 WNW 26 33 14 18 - - -
30/01:30am 12.5 7.4 10.6 88 1.0 WNW 28 33 15 18 - - -
30/01:00am 13.4 8.2 10.4 82 1.6 NW 28 33 15 18 - - -
30/12:30am 13.0 9.5 10.9 87 1.1 WNW 20 26 11 14 - - -
30/12:00am 12.5 6.5 10.9 90 0.8 W 33 39 18 21 - - -

Latest Capital City Observations: Canberra | Sydney | Melbourne | Brisbane | Adelaide | Perth | Hobart | Darwin

Other Formats:

Comma delimited format used in spreadsheet applications
http://www.bom.gov.au/fwo/IDV60901/IDV60901.94871.axf

JavaScript Object Notation format (JSON) in row-major order
http://www.bom.gov.au/fwo/IDV60901/IDV60901.94871.json